• Join FlightAware (Why Join?)
  • Login
  • US Flag 
08:01PM EDT


 

Airport Tracker/Info


-or-


 

Live Flight TrackerFlight Track Log ✈ N172AF ✈ 24-May-2013 ✈ KSMO - KTOA

Flight Track Log - Related Links

Times and Time Zones

All times are in EDT time to prevent confusion due to time zone crossing. See the N172AF flight status page for this flight to view local times or setup timezone preferences in your user account.

Time Position Orientation Groundspeed Altitude Reporting Facility
EDT Latitude Longitude Course Direction KTS MPH feet Rate Location/Type
06:50PM 34.0000 -118.4667 270° West 69 79 1,100  Level Southern California TRACON
06:51PM 34.0000 -118.4833 270° West 74 85 1,800 660 Climbing Southern California TRACON
06:52PM 33.9939 -118.5042 251° West 73 84 2,300 660 Climbing Los Angeles Center
06:53PM 33.9969 -118.5311 278° West 82 94 3,000 600 Climbing Los Angeles Center
06:54PM 34.0033 -118.5569 287° West 80 92 3,600 540 Climbing Los Angeles Center
06:55PM 34.0169 -118.5417 43° Northeast 83 96 4,200 300 Climbing Los Angeles Center
06:56PM 34.0103 -118.5072 103° East 99 114 4,300 300 Climbing Los Angeles Center
06:57PM 34.0125 -118.4789 85° East 88 101 4,900 360 Climbing Los Angeles Center
06:58PM 34.0128 -118.4525 89° East 86 99 5,100 60 Climbing Los Angeles Center
06:59PM 33.9925 -118.4364 147° Southeast 88 101 5,100  Level Los Angeles Center
07:00PM 33.9633 -118.4256 163° South 90 104 5,100 -60 Level Los Angeles Center
07:01PM 33.9397 -118.4117 154° Southeast 93 107 5,000  Descending Los Angeles Center
07:02PM 33.9153 -118.4039 165° South 92 106 5,100  Climbing Los Angeles Center
07:03PM 33.8911 -118.3967 166° South 91 105 5,100 -300 Level Los Angeles Center
07:04PM 33.8647 -118.3853 160° South 94 108 4,500 -540 Descending Los Angeles Center
07:05PM 33.8297 -118.3747 166° South 102 117 4,000 -480 Descending Los Angeles Center
07:06PM 33.7997 -118.3686 170° South 107 123 3,600 -360 Descending Los Angeles Center
07:07PM 33.7769 -118.3483 143° Southeast 107 123 3,300 -300 Descending Los Angeles Center
07:08PM 33.7569 -118.3247 136° Southeast 101 116 3,000 -240 Descending Los Angeles Center
07:09PM 33.7358 -118.3072 145° Southeast 95 109 2,900 -60 Descending Los Angeles Center
07:10PM 33.7208 -118.2931 142° Southeast 94 108 2,900 60 Level Los Angeles Center
07:11PM 33.7094 -118.2722 123° Southeast 83 96 3,100 60 Climbing Los Angeles Center
07:12PM 33.7000 -118.2447 112° Southeast 85 98 3,100 -240 Level Los Angeles Center
07:13PM 33.6911 -118.2097 107° East 90 104 2,700 -540 Descending Los Angeles Center
07:15PM 33.7147 -118.2064 North 101 116 2,100 -300 Descending Los Angeles Center
07:16PM 33.7303 -118.2303 308° West 102 117 2,100 -60 Level Los Angeles Center
07:17PM 33.7447 -118.2539 306° West 97 112 2,000 -60 Descending Los Angeles Center
07:18PM 33.7606 -118.2756 311° West 92 106 2,000 -300 Level Los Angeles Center
07:19PM 33.7792 -118.3028 309° West 90 104 1,500 -540 Descending Los Angeles Center
07:20PM 33.7975 -118.3286 311° West 98 113 1,000  Descending Los Angeles Center
07:21PM 33.8133 -118.3531 308° West 96 110 1,500 540 Climbing Los Angeles Center
07:22PM 33.8081 -118.3908 260° West 97 112 2,200 540 Climbing Los Angeles Center
07:24PM 33.7978 -118.4572 259° West 103 119 3,200 300 Climbing Los Angeles Center
07:25PM 33.7711 -118.4525 172° South 98 113 3,200  Level Los Angeles Center
07:26PM 33.7528 -118.4664 212° Southwest 98 113 3,300 -60 Climbing Los Angeles Center
07:27PM 33.7456 -118.5022 256° West 94 108 3,100 -120 Descending Los Angeles Center
07:28PM 33.7600 -118.4900 35° Northeast 95 109 3,100 -60 Level Los Angeles Center
07:29PM 33.7658 -118.4622 76° East 87 100 3,000 -120 Descending Los Angeles Center
07:30PM 33.7608 -118.4364 103° East 90 104 2,900 -60 Descending Los Angeles Center
07:31PM 33.7514 -118.4614 246° West 97 112 2,900 60 Level Los Angeles Center
07:32PM 33.7653 -118.4586 North 92 106 3,100 60 Climbing Los Angeles Center
07:33PM 33.7542 -118.4378 123° Southeast 98 113 3,100  Level Los Angeles Center
07:34PM 33.7456 -118.4667 250° West 100 115 3,200  Climbing Los Angeles Center
07:35PM 33.7589 -118.4772 327° Northwest 94 108 3,100 -60 Descending Los Angeles Center
07:36PM 33.7633 -118.4472 80° East 89 102 3,100  Level Los Angeles Center
07:37PM 33.7689 -118.4189 77° East 92 106 3,200 360 Climbing Los Angeles Center
07:39PM 33.8000 -118.3833 44° Northeast 84 97 4,200 540 Climbing Southern California TRACON
07:39PM 33.8014 -118.3742 80° East 87 100 4,400 420 Climbing Los Angeles Center